Time;durP1;ratioP1;P1;durP2;ratioP2;P2;SDS_P1;SDS_P2;PMS_P1;PMS_P2;Temp;Humidity;BMP_temperature;BMP_pressure;BME280_temperature;BME280_humidity;BME280_pressure;Samples;Min_cycle;Max_cycle;Signal;HPM_P1;HPM_P2
2021/06/27 00:01:16;;;;;;;8.07;4.55;;;;;;;28.24;37.00;96640.00;4932404;28;20047;-34
2021/06/27 00:03:42;;;;;;;6.25;4.28;;;;;;;28.26;36.98;96640.78;4930458;28;20589;-34
2021/06/27 00:06:07;;;;;;;6.93;4.40;;;;;;;28.25;37.04;96641.69;4936715;28;20035;-36
2021/06/27 00:08:33;;;;;;;7.57;4.57;;;;;;;28.27;37.00;96642.47;4930305;28;20843;-37
2021/06/27 00:10:59;;;;;;;7.07;4.38;;;;;;;28.27;37.05;96645.09;4931901;28;20069;-32
2021/06/27 00:13:26;;;;;;;7.70;4.63;;;;;;;28.26;36.96;96646.06;4950507;28;20043;-36
2021/06/27 00:15:52;;;;;;;9.77;4.93;;;;;;;28.26;37.08;96652.16;4937137;28;20130;-34
2021/06/27 00:18:19;;;;;;;7.05;4.40;;;;;;;28.27;36.97;96653.00;4934912;28;20026;-34
2021/06/27 00:20:45;;;;;;;5.72;4.45;;;;;;;28.26;37.10;96654.78;4928878;28;20326;-33
2021/06/27 00:23:11;;;;;;;5.40;4.55;;;;;;;28.27;36.88;96658.28;4951880;28;20085;-33
2021/06/27 00:25:36;;;;;;;6.20;4.53;;;;;;;28.27;36.82;96645.94;4927592;28;20042;-33
2021/06/27 00:28:03;;;;;;;4.95;4.45;;;;;;;28.27;37.00;96643.28;4931215;28;20093;-35
2021/06/27 00:30:28;;;;;;;7.72;4.53;;;;;;;28.28;37.04;96641.53;4931766;28;20039;-31
2021/06/27 00:32:54;;;;;;;7.32;4.60;;;;;;;28.29;36.87;96645.84;4927245;28;21346;-38
2021/06/27 00:35:20;;;;;;;9.65;4.47;;;;;;;28.29;36.95;96651.97;4927071;28;20031;-35
2021/06/27 00:37:45;;;;;;;7.15;4.40;;;;;;;28.29;36.95;96643.19;4943321;28;20027;-36
2021/06/27 00:40:13;;;;;;;7.13;4.38;;;;;;;28.29;37.03;96635.28;4933040;28;20027;-32
2021/06/27 00:42:38;;;;;;;6.80;4.63;;;;;;;28.29;36.94;96635.28;4931955;28;23065;-31
2021/06/27 00:45:05;;;;;;;7.65;4.38;;;;;;;28.29;36.81;96632.66;4948899;28;20042;-36
2021/06/27 00:47:32;;;;;;;8.50;4.20;;;;;;;28.30;36.69;96637.00;4935834;28;20205;-34
2021/06/27 00:49:57;;;;;;;7.95;4.20;;;;;;;28.29;36.89;96649.31;4935304;28;20034;-34
2021/06/27 00:52:23;;;;;;;9.07;4.22;;;;;;;28.30;36.76;96642.28;4931186;28;20035;-33
2021/06/27 00:54:49;;;;;;;12.18;4.22;;;;;;;28.30;36.99;96647.56;4929461;28;20536;-33
2021/06/27 00:57:14;;;;;;;8.93;4.20;;;;;;;28.30;36.86;96637.00;4933816;28;20039;-35
2021/06/27 00:59:40;;;;;;;5.47;4.38;;;;;;;28.29;36.95;96645.84;4931944;28;20066;-37
2021/06/27 01:02:05;;;;;;;7.63;4.30;;;;;;;28.29;36.81;96645.84;4931782;28;20062;-34
2021/06/27 01:04:31;;;;;;;8.15;4.43;;;;;;;28.29;36.91;96641.41;4929620;28;20034;-37
2021/06/27 01:06:56;;;;;;;4.65;4.00;;;;;;;28.30;36.82;96642.28;4933002;28;20027;-38
2021/06/27 01:09:22;;;;;;;6.50;4.38;;;;;;;28.29;36.80;96646.69;4936311;28;20104;-34
2021/06/27 01:11:47;;;;;;;6.05;3.95;;;;;;;28.30;36.77;96642.28;4932245;28;20514;-35
2021/06/27 01:14:12;;;;;;;5.30;3.95;;;;;;;28.31;36.80;96643.97;4934571;28;20030;-37
2021/06/27 01:16:40;;;;;;;6.70;4.70;;;;;;;28.31;36.86;96649.22;4930171;28;20800;-33
2021/06/27 01:19:09;;;;;;;7.15;4.47;;;;;;;28.30;36.73;96637.00;4935883;28;20387;-34
2021/06/27 01:21:36;;;;;;;8.25;4.28;;;;;;;28.31;36.87;96649.22;4936386;28;20446;-38
2021/06/27 01:24:04;;;;;;;8.70;4.30;;;;;;;28.32;36.83;96650.06;4931662;28;20027;-32
2021/06/27 01:26:30;;;;;;;6.88;4.03;;;;;;;28.31;36.71;96654.50;4932057;28;20486;-32
2021/06/27 01:28:58;;;;;;;7.95;4.18;;;;;;;28.32;36.80;96648.28;4930784;28;20058;-36
2021/06/27 01:31:23;;;;;;;4.70;4.25;;;;;;;28.30;36.80;96645.75;4932583;28;20044;-34
2021/06/27 01:33:49;;;;;;;6.50;4.32;;;;;;;28.30;36.78;96643.09;4945301;28;20955;-35
2021/06/27 01:36:14;;;;;;;5.13;3.92;;;;;;;28.30;36.96;96653.66;4932495;28;20035;-35
2021/06/27 01:38:40;;;;;;;5.95;4.40;;;;;;;28.31;36.75;96649.22;4923917;28;20035;-35
2021/06/27 01:41:06;;;;;;;8.02;3.97;;;;;;;28.30;36.94;96656.28;4928842;28;20034;-37
2021/06/27 01:43:31;;;;;;;7.18;3.90;;;;;;;28.30;37.05;96653.66;4935175;28;20596;-36
2021/06/27 01:45:59;;;;;;;7.05;4.25;;;;;;;28.30;36.74;96658.91;4926581;28;20097;-35
2021/06/27 01:48:24;;;;;;;6.32;3.90;;;;;;;28.31;36.98;96649.22;4929957;28;20686;-35
2021/06/27 01:50:50;;;;;;;5.10;4.40;;;;;;;28.31;36.88;96654.50;4929886;28;20042;-37
2021/06/27 01:53:17;;;;;;;5.65;4.22;;;;;;;28.30;36.87;96648.38;4927690;28;20054;-31
2021/06/27 01:55:43;;;;;;;10.05;4.15;;;;;;;28.32;36.81;96647.41;4932465;28;20042;-35
2021/06/27 01:58:08;;;;;;;5.38;4.03;;;;;;;28.30;36.64;96640.47;4928417;28;20027;-33
2021/06/27 02:00:34;;;;;;;4.03;3.63;;;;;;;28.32;36.84;96644.78;4931058;28;20039;-37
2021/06/27 02:03:02;;;;;;;6.93;4.28;;;;;;;28.32;36.71;96645.63;4930874;28;20031;-41
2021/06/27 02:05:29;;;;;;;4.63;4.07;;;;;;;28.32;36.84;96645.63;4930898;28;20578;-36
2021/06/27 02:07:54;;;;;;;4.85;3.67;;;;;;;28.31;36.85;96654.50;4931579;28;20382;-32
2021/06/27 02:10:22;;;;;;;8.52;4.05;;;;;;;28.30;36.80;96653.66;4933562;28;20030;-38
2021/06/27 02:12:49;;;;;;;5.00;3.80;;;;;;;28.28;36.85;96641.53;4927904;28;20061;-34
2021/06/27 02:15:14;;;;;;;6.90;4.10;;;;;;;28.32;36.71;96656.19;4928629;28;20034;-35
2021/06/27 02:18:11;;;;;;;5.88;4.18;;;;;;;28.31;36.84;96643.97;4932342;28;20039;-33
2021/06/27 02:20:37;;;;;;;10.70;4.38;;;;;;;28.32;36.64;96637.72;4946975;28;20480;-34
2021/06/27 02:23:02;;;;;;;6.15;3.72;;;;;;;28.32;36.62;96624.56;4936092;28;20026;-33
2021/06/27 02:25:28;;;;;;;9.25;4.38;;;;;;;28.32;36.49;96619.28;4941817;28;20055;-33
2021/06/27 02:27:53;;;;;;;4.22;3.80;;;;;;;28.30;36.59;96613.28;4935857;28;20466;-35
2021/06/27 02:30:19;;;;;;;4.53;3.88;;;;;;;28.30;36.61;96616.75;4932265;28;20034;-36
2021/06/27 02:32:45;;;;;;;6.40;4.28;;;;;;;28.32;36.58;96621.06;4935957;28;20035;-36
2021/06/27 02:35:11;;;;;;;4.10;3.70;;;;;;;28.32;36.63;96618.44;4935108;28;20034;-39
2021/06/27 02:37:36;;;;;;;5.85;3.80;;;;;;;28.31;36.56;96620.25;4933328;28;20333;-38
2021/06/27 02:40:02;;;;;;;5.70;3.83;;;;;;;28.32;36.62;96621.06;4933543;28;20054;-33
2021/06/27 02:42:27;;;;;;;4.50;3.75;;;;;;;28.32;36.70;96619.28;4930597;28;20292;-35
2021/06/27 02:44:53;;;;;;;6.07;3.80;;;;;;;28.31;36.63;96614.97;4940530;28;20625;-33
2021/06/27 02:47:18;;;;;;;4.35;3.70;;;;;;;28.30;36.43;96616.75;4935772;28;20047;-33
2021/06/27 02:49:44;;;;;;;6.05;3.70;;;;;;;28.30;36.49;96613.28;4937481;28;20046;-35
2021/06/27 02:52:12;;;;;;;3.83;3.40;;;;;;;28.27;36.86;96610.84;4936955;28;20035;-39
2021/06/27 02:54:37;;;;;;;5.30;3.60;;;;;;;28.30;36.67;96603.56;4929876;28;20027;-33
2021/06/27 02:57:03;;;;;;;4.10;3.70;;;;;;;28.32;36.67;96610.53;4939384;28;20457;-36
2021/06/27 02:59:32;;;;;;;4.57;4.18;;;;;;;28.31;36.75;96599.16;4939358;28;20046;-40
2021/06/27 03:01:57;;;;;;;4.25;3.50;;;;;;;28.31;36.73;96591.25;4934912;28;20043;-32
2021/06/27 03:04:22;;;;;;;6.43;4.22;;;;;;;28.32;36.46;96587.66;4936541;28;20035;-39
2021/06/27 03:06:48;;;;;;;8.00;3.67;;;;;;;28.31;36.56;96580.72;4927170;28;20506;-33
2021/06/27 03:09:13;;;;;;;6.38;4.05;;;;;;;28.30;36.56;96581.66;4936104;28;20050;-34
2021/06/27 03:11:39;;;;;;;6.18;3.90;;;;;;;28.31;36.48;96580.72;4962726;28;20027;-39
2021/06/27 03:14:06;;;;;;;6.18;3.88;;;;;;;28.31;36.53;96575.44;4934314;28;20097;-37
2021/06/27 03:16:32;;;;;;;4.18;3.63;;;;;;;28.32;36.40;96585.03;4937213;28;20033;-36
2021/06/27 03:18:57;;;;;;;4.82;3.50;;;;;;;28.31;36.34;96575.44;4951117;28;20022;-35
2021/06/27 03:21:22;;;;;;;4.10;3.70;;;;;;;28.32;36.46;96565.72;4936173;28;20042;-34
2021/06/27 03:23:48;;;;;;;5.93;4.18;;;;;;;28.32;36.48;96563.94;4933288;28;20058;-38
2021/06/27 03:26:13;;;;;;;4.93;3.42;;;;;;;28.32;36.30;96558.69;4941548;28;20023;-37
2021/06/27 03:28:39;;;;;;;5.65;3.72;;;;;;;28.32;36.53;96556.03;4963135;28;20814;-33
2021/06/27 03:31:05;;;;;;;3.90;3.50;;;;;;;28.32;36.61;96556.03;4936148;28;20149;-37
2021/06/27 03:33:30;;;;;;;6.78;3.83;;;;;;;28.31;36.62;96543.81;4937638;28;20018;-35
2021/06/27 03:35:56;;;;;;;4.82;3.40;;;;;;;28.32;36.72;96540.22;4933481;28;20524;-38
2021/06/27 03:41:02;;;;;;;4.28;3.47;;;;;;;28.32;36.54;96539.38;4933218;28;20530;-30
2021/06/27 03:43:27;;;;;;;4.60;3.60;;;;;;;28.32;36.49;96539.38;4940476;28;20038;-37
2021/06/27 03:45:53;;;;;;;4.18;3.70;;;;;;;28.32;36.42;96534.97;4926846;28;20034;-34
2021/06/27 03:48:18;;;;;;;5.22;3.80;;;;;;;28.31;36.79;96543.81;4933735;28;20019;-35
2021/06/27 03:50:44;;;;;;;6.93;3.78;;;;;;;28.32;36.48;96553.41;4935878;28;20710;-32
2021/06/27 03:53:09;;;;;;;4.63;3.58;;;;;;;28.31;36.63;96567.53;4936157;28;20019;-32
2021/06/27 03:55:34;;;;;;;4.85;3.58;;;;;;;28.32;36.78;96577.13;4935158;28;20382;-36
2021/06/27 03:58:00;;;;;;;3.92;3.55;;;;;;;28.33;36.71;96581.44;4934311;28;20035;-35
2021/06/27 04:00:25;;;;;;;5.50;3.40;;;;;;;28.24;36.81;96567.06;4936100;28;20790;-36
2021/06/27 04:02:51;;;;;;;5.97;3.90;;;;;;;28.33;36.65;96578.81;4935836;28;20073;-34
2021/06/27 04:05:16;;;;;;;4.15;3.75;;;;;;;28.31;36.73;96583.34;4931421;28;20035;-33
2021/06/27 04:07:42;;;;;;;4.30;3.35;;;;;;;28.31;36.73;96596.53;4934355;28;20019;-37
2021/06/27 04:10:07;;;;;;;7.03;3.50;;;;;;;28.32;36.64;96589.44;4965531;28;20071;-31
2021/06/27 04:12:33;;;;;;;4.88;3.55;;;;;;;28.32;36.74;96584.19;4936147;28;20454;-33
2021/06/27 04:14:58;;;;;;;7.32;3.72;;;;;;;28.33;36.63;96589.34;4932415;28;20138;-36
2021/06/27 04:17:24;;;;;;;7.07;3.92;;;;;;;28.32;36.72;96586.81;4933564;28;20030;-35
2021/06/27 04:19:50;;;;;;;4.68;3.50;;;;;;;28.31;36.63;96599.16;4932234;28;20035;-35
2021/06/27 04:22:15;;;;;;;4.38;3.75;;;;;;;28.30;36.69;96595.66;4935893;28;20065;-35
2021/06/27 04:24:41;;;;;;;7.05;3.50;;;;;;;28.30;36.76;96597.47;4937719;28;20802;-35
2021/06/27 04:27:06;;;;;;;4.38;3.95;;;;;;;28.31;36.66;96601.78;4934830;28;20027;-37
2021/06/27 04:29:32;;;;;;;4.43;4.00;;;;;;;28.30;36.69;96597.47;4932681;28;20038;-36
2021/06/27 04:31:57;;;;;;;4.45;3.60;;;;;;;28.30;36.72;96600.94;4934894;28;20473;-33
2021/06/27 04:34:23;;;;;;;4.03;3.47;;;;;;;28.31;36.80;96601.78;4931508;28;20843;-36
2021/06/27 04:36:49;;;;;;;4.97;4.03;;;;;;;28.31;36.94;96604.44;4933629;28;20477;-36
2021/06/27 04:39:15;;;;;;;5.65;3.70;;;;;;;28.30;36.89;96603.56;4929822;28;20034;-34
2021/06/27 04:41:44;;;;;;;5.97;3.60;;;;;;;28.31;36.72;96607.06;4933134;28;20039;-32
2021/06/27 04:44:11;;;;;;;4.40;3.60;;;;;;;28.30;36.98;96600.13;4933433;28;20034;-32
2021/06/27 04:46:41;;;;;;;6.07;4.10;;;;;;;28.30;36.86;96595.66;4935628;28;20560;-35
2021/06/27 04:49:10;;;;;;;4.00;3.60;;;;;;;28.30;36.83;96594.84;4927149;28;20038;-33
2021/06/27 04:51:35;;;;;;;4.40;3.45;;;;;;;28.27;36.71;96582.69;4929443;28;20056;-34
2021/06/27 04:54:01;;;;;;;4.30;3.90;;;;;;;28.32;36.95;96581.53;4929855;28;20089;-36
2021/06/27 04:56:26;;;;;;;5.65;3.72;;;;;;;28.32;36.80;96571.84;4931931;28;20032;-34
2021/06/27 04:58:51;;;;;;;10.27;3.90;;;;;;;28.30;36.86;96571.13;4933622;28;20045;-32
2021/06/27 05:01:17;;;;;;;4.45;3.70;;;;;;;28.32;36.73;96573.63;4935031;28;20039;-33
2021/06/27 05:03:42;;;;;;;6.65;3.70;;;;;;;28.31;36.97;96570.19;4934503;28;20418;-36
2021/06/27 05:06:07;;;;;;;4.65;3.50;;;;;;;28.31;36.95;96564.91;4936860;28;20850;-37
2021/06/27 05:08:33;;;;;;;4.35;3.65;;;;;;;28.32;36.78;96563.94;4927738;28;20039;-36
2021/06/27 05:10:58;;;;;;;5.68;3.50;;;;;;;28.32;37.01;96571.84;4931957;28;20047;-34
2021/06/27 05:13:24;;;;;;;4.40;3.50;;;;;;;28.31;36.96;96570.19;4931812;28;20031;-38
2021/06/27 05:15:50;;;;;;;5.65;3.70;;;;;;;28.31;36.86;96567.53;4932512;28;20082;-35
2021/06/27 05:18:15;;;;;;;4.43;3.70;;;;;;;28.31;36.97;96562.28;4930601;28;20038;-35
2021/06/27 05:20:41;;;;;;;4.03;3.63;;;;;;;28.32;37.03;96565.72;4925543;28;20106;-29
2021/06/27 05:23:06;;;;;;;5.97;3.72;;;;;;;28.32;36.85;96563.94;4932221;28;20023;-34
2021/06/27 05:25:31;;;;;;;3.92;3.47;;;;;;;28.31;37.06;96564.91;4933983;28;20027;-32
2021/06/27 05:27:57;;;;;;;4.13;3.72;;;;;;;28.32;37.12;96571.00;4935223;28;20568;-35
2021/06/27 05:30:25;;;;;;;4.30;3.67;;;;;;;28.32;37.01;96571.84;4932784;28;20027;-35
2021/06/27 05:32:50;;;;;;;7.53;4.00;;;;;;;28.32;36.93;96571.84;4931177;28;20031;-35
2021/06/27 05:35:15;;;;;;;5.50;4.03;;;;;;;28.32;36.96;96561.31;4932778;28;20034;-32
2021/06/27 05:37:41;;;;;;;4.05;3.40;;;;;;;28.34;37.33;96569.13;4933115;28;20249;-35
2021/06/27 05:40:07;;;;;;;5.75;3.80;;;;;;;28.32;37.18;96561.31;4931668;28;20038;-30
2021/06/27 05:42:32;;;;;;;4.85;3.65;;;;;;;28.33;37.11;96565.63;4927395;28;20039;-33
2021/06/27 05:44:58;;;;;;;4.55;3.88;;;;;;;28.34;37.15;96564.69;4933898;28;20060;-37
2021/06/27 05:47:23;;;;;;;5.20;4.00;;;;;;;28.35;37.07;96562.91;4928395;28;20027;-33
2021/06/27 05:49:48;;;;;;;5.65;3.78;;;;;;;28.35;37.33;96561.13;4935332;28;20565;-36
2021/06/27 05:52:14;;;;;;;4.32;3.80;;;;;;;28.35;37.07;96560.25;4927521;28;20030;-38
2021/06/27 05:54:39;;;;;;;4.88;3.80;;;;;;;28.36;37.21;96557.53;4931438;28;20035;-32
2021/06/27 05:57:05;;;;;;;5.07;3.85;;;;;;;28.35;37.20;96555.84;4938072;28;20125;-35
2021/06/27 05:59:30;;;;;;;5.85;4.47;;;;;;;28.35;37.12;96550.56;4936269;28;20130;-34
2021/06/27 06:01:56;;;;;;;5.22;3.92;;;;;;;28.36;37.43;96543.50;4931944;28;20042;-37
2021/06/27 06:04:21;;;;;;;5.22;4.20;;;;;;;28.36;37.32;96547.00;4933564;28;20812;-34
2021/06/27 06:06:47;;;;;;;5.57;3.90;;;;;;;28.36;37.16;96551.41;4934822;28;20524;-37
2021/06/27 06:09:12;;;;;;;5.35;3.63;;;;;;;28.36;37.25;96552.25;4933965;28;20034;-35
2021/06/27 06:11:38;;;;;;;4.28;3.30;;;;;;;28.36;36.94;96568.06;4936302;28;20088;-33
2021/06/27 06:14:03;;;;;;;4.47;3.83;;;;;;;28.37;37.22;96575.03;4933532;28;21043;-34
2021/06/27 06:16:29;;;;;;;4.47;3.75;;;;;;;28.38;37.21;96575.88;4934955;28;20034;-33
2021/06/27 06:18:54;;;;;;;6.68;3.28;;;;;;;28.37;37.16;96563.66;4934413;28;20046;-31
2021/06/27 06:21:20;;;;;;;4.43;3.60;;;;;;;28.37;37.25;96564.47;4930659;28;22782;-36
2021/06/27 06:23:45;;;;;;;5.40;3.80;;;;;;;28.37;37.40;96564.47;4937703;28;20553;-36
2021/06/27 06:26:10;;;;;;;3.92;3.53;;;;;;;28.37;37.31;96559.22;4938225;28;20039;-35
2021/06/27 06:28:38;;;;;;;5.63;3.22;;;;;;;28.39;37.43;96561.75;4965553;28;20935;-32
2021/06/27 06:31:04;;;;;;;6.70;3.38;;;;;;;28.40;37.22;96560.78;4930768;28;20082;-33
2021/06/27 06:33:29;;;;;;;6.95;3.45;;;;;;;28.40;37.20;96552.88;4935632;28;20757;-34
2021/06/27 06:35:54;;;;;;;5.90;3.47;;;;;;;28.40;37.31;96553.75;4945078;28;20118;-35
2021/06/27 06:38:20;;;;;;;3.80;2.97;;;;;;;28.41;37.42;96544.88;4933514;28;20030;-36
2021/06/27 06:40:45;;;;;;;7.30;3.55;;;;;;;28.42;37.19;96546.56;4933244;28;20031;-32
2021/06/27 06:43:11;;;;;;;5.40;3.78;;;;;;;28.43;37.15;96550.91;4948414;28;20803;-34
2021/06/27 06:45:36;;;;;;;4.40;3.65;;;;;;;28.42;37.27;96541.28;4938113;28;20026;-34
2021/06/27 06:48:01;;;;;;;4.78;3.58;;;;;;;28.45;37.48;96544.69;4933081;28;20038;-30
2021/06/27 06:50:27;;;;;;;6.25;3.47;;;;;;;28.44;37.27;96546.47;4929488;28;20027;-29
2021/06/27 06:52:52;;;;;;;17.95;4.18;;;;;;;28.45;37.47;96544.69;4929538;28;20745;-31
2021/06/27 06:55:20;;;;;;;6.35;4.78;;;;;;;28.46;37.22;96549.00;4931653;28;20039;-34
2021/06/27 06:57:49;;;;;;;5.93;4.50;;;;;;;28.45;37.63;96544.69;4931432;28;20027;-34
2021/06/27 07:00:15;;;;;;;7.10;4.63;;;;;;;28.43;37.67;96548.28;4944843;28;20039;-32
2021/06/27 07:02:40;;;;;;;5.82;4.80;;;;;;;28.43;37.59;96550.91;4929740;28;20145;-31
2021/06/27 07:05:07;;;;;;;6.70;4.60;;;;;;;28.38;37.51;96536.34;4923511;28;20050;-34
2021/06/27 07:07:32;;;;;;;6.47;4.32;;;;;;;28.43;37.51;96545.63;4943765;28;20089;-29
2021/06/27 07:09:57;;;;;;;5.10;4.38;;;;;;;28.43;37.47;96539.50;4930610;28;20038;-31
2021/06/27 07:12:23;;;;;;;4.72;4.30;;;;;;;28.42;37.58;96541.28;4946678;28;20042;-35
2021/06/27 07:14:48;;;;;;;6.97;4.22;;;;;;;28.41;37.63;96544.88;4932529;28;20036;-32
2021/06/27 07:17:14;;;;;;;5.22;3.92;;;;;;;28.41;37.60;96538.75;4930940;28;20038;-32
2021/06/27 07:19:39;;;;;;;7.47;4.03;;;;;;;28.41;37.71;96531.69;4932419;28;20034;-37
2021/06/27 07:22:05;;;;;;;6.65;4.30;;;;;;;28.42;37.77;96537.81;4931763;28;20038;-34
2021/06/27 07:24:30;;;;;;;4.82;4.32;;;;;;;28.40;37.67;96535.28;4931855;28;20517;-27
2021/06/27 07:26:55;;;;;;;4.45;3.83;;;;;;;28.41;37.71;96534.34;4934359;28;20031;-36
2021/06/27 07:29:21;;;;;;;6.10;4.05;;;;;;;28.41;37.64;96530.84;4932070;28;20469;-35
2021/06/27 07:31:47;;;;;;;4.47;3.92;;;;;;;28.41;37.66;96528.22;4930365;28;21001;-35
2021/06/27 07:34:12;;;;;;;4.40;3.42;;;;;;;28.40;37.73;96532.66;4931228;28;20031;-34
2021/06/27 07:36:38;;;;;;;5.93;3.92;;;;;;;28.40;37.62;96527.38;4930853;28;20038;-38
2021/06/27 07:39:03;;;;;;;5.75;3.20;;;;;;;28.39;37.57;96530.97;4931444;28;20973;-35
2021/06/27 07:41:29;;;;;;;4.43;3.10;;;;;;;28.39;37.39;96525.72;4930635;28;22068;-36
2021/06/27 07:43:54;;;;;;;3.70;3.30;;;;;;;28.38;37.09;96529.25;4965288;28;20035;-30
2021/06/27 07:46:19;;;;;;;5.65;3.00;;;;;;;28.37;37.12;96522.31;4933399;28;20077;-32
2021/06/27 07:48:45;;;;;;;4.55;3.00;;;;;;;28.37;37.04;96522.31;4931088;28;20722;-30
2021/06/27 07:51:10;;;;;;;4.43;3.30;;;;;;;28.37;36.96;96517.03;4936557;28;20767;-36
2021/06/27 07:53:36;;;;;;;3.25;2.95;;;;;;;28.34;36.72;96501.44;4933261;28;20074;-32
2021/06/27 07:56:01;;;;;;;3.83;2.90;;;;;;;28.38;36.85;96510.81;4932516;28;20564;-35
2021/06/27 07:58:27;;;;;;;4.30;3.38;;;;;;;28.37;36.66;96521.50;4936195;28;20046;-35
2021/06/27 08:00:52;;;;;;;4.50;3.13;;;;;;;28.36;36.75;96525.91;4928840;28;20619;-36
2021/06/27 08:03:17;;;;;;;6.07;2.90;;;;;;;28.35;36.82;96526.88;4931455;28;20026;-36
2021/06/27 08:05:43;;;;;;;3.45;2.97;;;;;;;28.35;36.45;96521.59;4929664;28;20658;-35
2021/06/27 08:08:08;;;;;;;5.20;2.88;;;;;;;28.34;36.52;96527.78;4931394;28;21140;-34
2021/06/27 08:10:34;;;;;;;3.42;2.95;;;;;;;28.32;36.81;96527.06;4932269;28;20066;-38
2021/06/27 08:13:00;;;;;;;3.60;3.13;;;;;;;28.32;36.50;96523.56;4932457;28;20030;-30
2021/06/27 08:15:25;;;;;;;4.35;3.15;;;;;;;28.32;36.39;96527.06;4931106;28;20062;-35
2021/06/27 08:17:51;;;;;;;5.70;3.30;;;;;;;28.31;36.49;96538.56;4935371;28;20830;-33
2021/06/27 08:20:17;;;;;;;4.18;2.97;;;;;;;28.31;36.26;96533.28;4937284;28;20046;-34
2021/06/27 08:22:42;;;;;;;6.28;3.10;;;;;;;28.31;36.52;96522.75;4948146;28;20842;-29
2021/06/27 08:25:11;;;;;;;3.40;3.10;;;;;;;28.32;36.31;96516.53;4933200;28;20066;-32
2021/06/27 08:27:36;;;;;;;3.13;2.83;;;;;;;28.31;36.28;96514.84;4931879;28;20030;-33
2021/06/27 08:30:04;;;;;;;3.10;2.80;;;;;;;28.32;36.44;96513.88;4930869;28;20326;-29
2021/06/27 08:32:30;;;;;;;4.18;3.17;;;;;;;28.34;36.59;96517.25;4929376;28;20417;-32
2021/06/27 08:34:56;;;;;;;4.28;3.17;;;;;;;28.34;36.52;96511.97;4933106;28;20023;-30
2021/06/27 08:37:21;;;;;;;3.90;3.10;;;;;;;28.35;36.39;96511.06;4933509;28;20123;-30
2021/06/27 08:39:47;;;;;;;6.47;3.65;;;;;;;28.36;36.61;96510.09;4934188;28;20035;-32
2021/06/27 08:42:12;;;;;;;3.65;2.97;;;;;;;28.34;36.85;96517.25;4929476;28;20061;-35
2021/06/27 08:44:37;;;;;;;3.88;3.05;;;;;;;28.37;36.59;96522.31;4928829;28;20027;-31
2021/06/27 08:47:03;;;;;;;4.28;3.15;;;;;;;28.38;36.95;96517.91;4934694;28;20723;-28
2021/06/27 08:49:29;;;;;;;3.97;3.10;;;;;;;28.40;36.62;96510.72;4929532;28;20030;-33
2021/06/27 08:51:57;;;;;;;5.00;3.10;;;;;;;28.40;36.54;96506.31;4929934;28;20023;-35
2021/06/27 08:54:23;;;;;;;4.97;3.25;;;;;;;28.41;36.55;96510.63;4928203;28;20039;-30
2021/06/27 08:56:48;;;;;;;3.95;2.90;;;;;;;28.42;36.63;96491.22;4929568;28;20576;-35
2021/06/27 08:59:14;;;;;;;6.28;2.97;;;;;;;28.42;36.65;96488.56;4929925;28;20557;-32
2021/06/27 09:01:39;;;;;;;3.42;3.00;;;;;;;28.44;36.84;96491.13;4926531;28;20043;-34
2021/06/27 09:04:04;;;;;;;4.07;2.95;;;;;;;28.46;36.63;96504.19;4927545;28;20030;-30
2021/06/27 09:06:40;;;;;;;5.47;3.40;;;;;;;28.47;37.05;96484.78;4931686;28;20031;-34
2021/06/27 09:09:21;;;;;;;6.07;3.47;;;;;;;28.48;36.92;96481.19;4930155;28;20031;-35
2021/06/27 09:11:58;;;;;;;8.17;2.80;;;;;;;28.50;36.98;96484.59;4942779;28;20049;-31
2021/06/27 09:14:34;;;;;;;6.78;3.35;;;;;;;28.51;37.03;96481.84;4934996;28;20039;-37
2021/06/27 09:17:05;;;;;;;8.65;3.30;;;;;;;28.51;36.72;96481.00;4934965;28;20418;-34
2021/06/27 09:19:31;;;;;;;8.95;3.83;;;;;;;28.51;37.10;96487.13;4938152;28;20230;-34
2021/06/27 09:22:10;;;;;;;5.18;3.40;;;;;;;28.52;36.99;96487.94;4936652;28;20074;-32
2021/06/27 09:24:35;;;;;;;8.38;3.60;;;;;;;28.52;37.29;96482.66;4924593;28;20588;-33
2021/06/27 09:27:15;;;;;;;7.35;3.63;;;;;;;28.53;37.18;96487.84;4957406;28;20027;-34
2021/06/27 09:29:41;;;;;;;12.88;3.53;;;;;;;28.54;37.17;96488.69;4943425;28;20098;-33
2021/06/27 09:32:16;;;;;;;10.30;3.63;;;;;;;28.55;37.08;96493.88;4942504;28;20046;-33
2021/06/27 09:34:42;;;;;;;7.15;3.33;;;;;;;28.57;37.47;96496.41;4942608;28;20637;-32
2021/06/27 09:37:08;;;;;;;9.98;3.40;;;;;;;28.55;37.28;96493.88;4957564;28;20688;-34
2021/06/27 09:39:34;;;;;;;10.30;3.80;;;;;;;28.57;37.46;96493.75;4951891;28;20239;-35
2021/06/27 09:42:03;;;;;;;4.70;2.92;;;;;;;28.58;37.35;96497.22;4953924;28;20702;-34
2021/06/27 09:44:29;;;;;;;8.88;3.40;;;;;;;28.59;37.28;96488.34;4944723;28;20075;-36
2021/06/27 09:46:54;;;;;;;5.15;3.30;;;;;;;28.60;37.28;96496.16;4959719;28;20039;-37
2021/06/27 09:49:26;;;;;;;6.70;3.13;;;;;;;28.61;37.64;96492.59;4944494;28;20556;-35
2021/06/27 09:51:55;;;;;;;9.60;3.50;;;;;;;28.62;37.27;96496.91;4954530;28;20063;-33
2021/06/27 09:54:22;;;;;;;5.30;3.17;;;;;;;28.62;37.16;96494.28;4942393;28;20034;-37
2021/06/27 09:56:48;;;;;;;5.13;2.97;;;;;;;28.63;37.30;96492.47;4942198;28;20041;-28
2021/06/27 09:59:15;;;;;;;6.25;3.28;;;;;;;28.63;36.95;96485.41;4958707;28;20026;-31
2021/06/27 10:01:40;;;;;;;8.20;2.95;;;;;;;28.64;37.34;96489.72;4941843;28;20587;-32
2021/06/27 10:04:07;;;;;;;4.97;2.80;;;;;;;28.66;36.92;96484.34;4943549;28;20027;-33
2021/06/27 10:06:33;;;;;;;5.07;2.85;;;;;;;28.67;37.38;96484.25;4943520;28;20405;-31
2021/06/27 10:09:13;;;;;;;5.80;3.22;;;;;;;28.67;37.61;96492.16;4944383;28;20027;-36
2021/06/27 10:11:39;;;;;;;4.88;2.88;;;;;;;28.68;37.40;96482.47;4941188;28;20030;-35
2021/06/27 10:14:08;;;;;;;5.30;2.97;;;;;;;28.69;37.50;96484.97;4960110;28;20054;-34
2021/06/27 10:16:34;;;;;;;4.00;2.80;;;;;;;28.69;37.32;96479.69;4942567;28;20030;-32
2021/06/27 10:18:59;;;;;;;4.57;2.80;;;;;;;28.71;37.05;96481.41;4974410;28;20027;-35
2021/06/27 10:21:25;;;;;;;3.92;2.70;;;;;;;28.73;37.14;96476.84;4941857;28;20045;-34
2021/06/27 10:23:51;;;;;;;3.47;2.38;;;;;;;28.73;37.19;96479.50;4942563;28;20031;-28
2021/06/27 10:26:17;;;;;;;3.85;2.60;;;;;;;28.73;37.51;96490.88;4944029;28;20775;-31
2021/06/27 10:28:43;;;;;;;6.40;2.63;;;;;;;28.75;37.34;96482.88;4944550;28;20042;-32
2021/06/27 10:31:12;;;;;;;3.63;2.58;;;;;;;28.75;37.37;96483.69;4940199;28;21051;-35
2021/06/27 10:33:39;;;;;;;3.35;2.20;;;;;;;28.76;37.32;96485.38;4941423;28;20047;-34
2021/06/27 10:36:04;;;;;;;5.22;2.83;;;;;;;28.73;37.51;96479.50;4958243;28;20027;-35
2021/06/27 10:38:30;;;;;;;3.38;2.40;;;;;;;28.78;37.28;96488.78;4936742;28;20043;-36
2021/06/27 10:40:57;;;;;;;2.88;2.42;;;;;;;28.78;37.50;96493.19;4954302;28;20038;-36
2021/06/27 10:43:23;;;;;;;4.68;2.80;;;;;;;28.79;37.25;96481.69;4941086;28;20133;-34
2021/06/27 10:45:48;;;;;;;3.03;2.35;;;;;;;28.80;37.31;96486.84;4938826;28;20325;-31
2021/06/27 10:48:32;;;;;;;4.10;2.65;;;;;;;28.82;37.46;96479.69;4939795;28;20026;-31
2021/06/27 10:50:57;;;;;;;5.05;2.65;;;;;;;28.82;37.37;96465.66;4938652;28;20121;-33
2021/06/27 10:53:23;;;;;;;2.92;2.30;;;;;;;28.82;37.33;96471.78;4952973;28;20113;-37
2021/06/27 10:55:48;;;;;;;3.08;2.33;;;;;;;28.83;37.32;96475.25;4954729;28;20039;-37
2021/06/27 10:58:34;;;;;;;3.47;2.47;;;;;;;28.83;37.29;96472.59;4935504;28;20031;-33
2021/06/27 11:01:00;;;;;;;3.95;2.28;;;;;;;28.85;37.40;96473.34;4938982;28;20101;-37
2021/06/27 11:03:36;;;;;;;3.78;2.20;;;;;;;28.85;37.63;96473.34;4938192;28;20039;-35
2021/06/27 11:06:03;;;;;;;3.25;2.30;;;;;;;28.86;37.43;96472.41;4940566;28;20027;-32
2021/06/27 11:08:34;;;;;;;2.95;2.10;;;;;;;28.87;37.41;96470.63;4938351;28;20054;-33
2021/06/27 11:11:02;;;;;;;3.42;2.53;;;;;;;28.88;37.54;96465.22;4951877;28;20053;-27
2021/06/27 11:13:28;;;;;;;2.85;2.10;;;;;;;28.88;37.54;96462.59;4939596;28;20054;-33
2021/06/27 11:15:53;;;;;;;2.53;2.10;;;;;;;28.90;37.45;96458.06;4939795;28;20035;-33
2021/06/27 11:18:38;;;;;;;3.78;2.20;;;;;;;28.90;37.52;96465.97;4939125;28;20113;-33
2021/06/27 11:21:10;;;;;;;1.98;1.80;;;;;;;28.90;37.77;96468.63;4938863;28;20525;-26
2021/06/27 11:23:47;;;;;;;2.78;2.00;;;;;;;28.92;37.54;96463.25;4938806;28;20035;-33
2021/06/27 11:26:42;;;;;;;2.25;2.05;;;;;;;28.87;37.61;96450.34;4939711;28;20031;-31
2021/06/27 11:29:30;;;;;;;3.72;2.38;;;;;;;28.92;37.33;96458.78;4944018;28;20046;-30
2021/06/27 11:32:08;;;;;;;3.10;2.00;;;;;;;28.93;37.35;96460.50;4942148;28;20046;-37
2021/06/27 11:34:35;;;;;;;3.17;2.40;;;;;;;28.94;37.77;96458.69;4936837;28;20104;-33